Garfield County Regional Airport
KRIL : now visible

Airfield :











YOU CAN JOIN US ON...

 
LOGIN :

Register | Disclaimer

   EN    FR    IT 

 









Legend :    VFR   Marginal VFR   IFR   Intensive IFR   Very Intensive IFR
Visi :
Ceiling :
>= 8 km
>= 3000ft
5 to 8 km
1000 to 3000 ft
1500m to 5 km
500 to 1000 ft
800 to 1500m
200 to 500 ft
< 800m
< 200 ft
Symbols :   Thunderstorms  Fog  Heavy snow  Heavy precipitations  Wind > 20 kt






- Airport Elevation : 5548 ft


KRIL - Garfield County Regional

CURRENT METAR :
  • 231353Z AUTO 17006KT 10SM BKN120 02/M01 A2995 RMK AO2 SLP140 T00171006

EXPIRED METARs :
  • 231253Z AUTO 00000KT 10SM FEW045 BKN055 OVC095 02/00 A2995 RMK AO2 SLP132 T00220000
  • 231153Z AUTO 00000KT 10SM FEW026 OVC080 02/00 A2993 RMK AO2 RAB08E31 SLP125 P0000 60000 T00220000 10050 20022 55004
  • 231136Z AUTO 00000KT 10SM FEW027 SCT038 OVC080 02/00 A2992 RMK AO2 RAB08E31 P0000 T00220000

TAF KRIL
Valid from the 23 at 12:00 until the 24 at 12:00 UTC


231135Z 2312/2412 16004KT P6SM VCSH SCT035 OVC070
TEMPO 2312/2314 4SM -RASN BR OVC029
FM231400 VRB03KT 6SM -SNRA BKN025 OVC040
FM231800 00000KT P6SM VCSH BKN025
FM232000 VRB04KT P6SM VCSH OVC035
FM240300 27005KT P6SM BKN250



MET'MAP, your aeronautical weather chart ! - Copyright ORBIFLY December 2007 - Disclaimer

ORBIFLY MET'MAP TEAM :

Programming & Development : Alexandra Zaïnal
Concept & original design : Baudouin d'Aumeries
Assistance for programming : Marc-Olivier Méhu
Technical & hardware support : Manuel Goepfert

Contact : metmap@orbifly.com




SOURCES & CREDITS :

   NOAA       Earth
Advisory